createdAt,value
2019-02-18T00:01:14.796Z,-0.30
2019-02-18T00:03:55.736Z,-0.40
2019-02-18T00:06:37.508Z,-0.40
2019-02-18T00:09:18.879Z,-0.40
2019-02-18T00:11:59.912Z,-0.40
2019-02-18T00:14:41.490Z,-0.40
2019-02-18T00:17:22.575Z,-0.40
2019-02-18T00:26:19.268Z,-0.30
2019-02-18T00:29:00.867Z,-0.40
2019-02-18T00:34:54.143Z,-0.50
2019-02-18T00:37:34.844Z,-0.50
2019-02-18T00:40:15.600Z,-0.60
2019-02-18T00:42:56.959Z,-0.60
2019-02-18T00:45:39.052Z,-0.70
2019-02-18T00:48:20.624Z,-0.70
2019-02-18T00:51:02.009Z,-0.70
2019-02-18T00:53:43.556Z,-0.70
2019-02-18T00:56:25.481Z,-0.70
2019-02-18T00:59:06.362Z,-0.80
2019-02-18T01:01:48.643Z,-0.80
2019-02-18T01:04:30.090Z,-0.70
2019-02-18T01:07:11.772Z,-0.70
2019-02-18T01:09:53.571Z,-0.60
2019-02-18T01:12:34.984Z,-0.60
2019-02-18T01:15:16.283Z,-0.60
2019-02-18T01:17:57.647Z,-0.60
2019-02-18T01:20:38.656Z,-0.60
2019-02-18T01:23:19.507Z,-0.70
2019-02-18T01:26:01.013Z,-0.70
2019-02-18T01:28:42.345Z,-0.70
2019-02-18T01:31:23.941Z,-0.80
2019-02-18T01:34:04.754Z,-0.80
2019-02-18T01:36:46.015Z,-0.70
2019-02-18T01:39:27.402Z,-0.70
2019-02-18T01:42:08.785Z,-0.70
2019-02-18T01:44:49.546Z,-0.80
2019-02-18T01:47:30.302Z,-0.80
2019-02-18T01:50:11.651Z,-0.80
2019-02-18T01:52:53.161Z,-0.80
2019-02-18T01:55:34.506Z,-0.80
2019-02-18T01:58:16.782Z,-0.80
2019-02-18T02:00:58.820Z,-0.80
2019-02-18T02:06:27.687Z,-0.90
2019-02-18T02:09:10.156Z,-0.90
2019-02-18T02:11:51.512Z,-0.90
2019-02-18T02:14:36.813Z,-0.90
2019-02-18T02:17:17.952Z,-0.90
2019-02-18T02:19:59.220Z,-1.00
2019-02-18T02:22:40.295Z,-1.00
2019-02-18T02:25:21.115Z,-1.10
2019-02-18T02:28:02.073Z,-1.20
2019-02-18T02:33:27.120Z,-1.00
2019-02-18T02:36:08.592Z,-0.90
2019-02-18T02:38:50.099Z,-0.90
2019-02-18T02:41:31.624Z,-0.90
2019-02-18T02:44:12.592Z,-1.00
2019-02-18T02:49:39.572Z,-1.10
2019-02-18T02:55:08.740Z,-1.10
2019-02-18T03:00:33.544Z,-1.20
2019-02-18T03:03:14.826Z,-1.20
2019-02-18T03:05:55.952Z,-1.20
2019-02-18T03:08:38.316Z,-1.20
2019-02-18T03:11:19.878Z,-1.30
2019-02-18T03:14:00.625Z,-1.40
2019-02-18T03:16:42.415Z,-1.50
2019-02-18T03:19:23.104Z,-1.50
2019-02-18T03:22:04.833Z,-1.50
2019-02-18T03:24:46.365Z,-1.50
2019-02-18T03:27:28.053Z,-1.50
2019-02-18T03:30:09.114Z,-1.50
2019-02-18T03:32:50.155Z,-1.50
2019-02-18T03:35:32.569Z,-1.50
2019-02-18T03:38:13.691Z,-1.50
2019-02-18T03:41:02.808Z,-1.50
2019-02-18T03:43:36.847Z,-1.50
2019-02-18T03:46:17.569Z,-1.60
2019-02-18T03:48:59.168Z,-1.60
2019-02-18T03:51:40.273Z,-1.60
2019-02-18T03:54:21.226Z,-1.60
2019-02-18T03:57:02.007Z,-1.70
2019-02-18T03:59:43.129Z,-1.70
2019-02-18T04:02:23.884Z,-1.70
2019-02-18T04:05:04.700Z,-1.70
2019-02-18T04:07:45.271Z,-1.80
2019-02-18T04:10:26.873Z,-1.80
2019-02-18T04:13:08.417Z,-1.80
2019-02-18T04:15:49.857Z,-1.80
2019-02-18T04:18:31.453Z,-1.90
2019-02-18T04:21:12.751Z,-1.90
2019-02-18T04:26:40.368Z,-1.90
2019-02-18T04:29:21.425Z,-2.00
2019-02-18T04:32:02.374Z,-2.00
2019-02-18T04:34:43.411Z,-2.00
2019-02-18T04:37:24.984Z,-2.00
2019-02-18T04:40:05.559Z,-2.00
2019-02-18T04:42:46.397Z,-2.00
2019-02-18T04:45:27.292Z,-2.00
2019-02-18T04:48:08.312Z,-2.00
2019-02-18T04:53:34.363Z,-2.10
2019-02-18T04:56:15.760Z,-2.10
2019-02-18T04:58:56.502Z,-2.00
2019-02-18T05:01:37.470Z,-2.00
2019-02-18T05:04:19.424Z,-2.00
2019-02-18T05:07:00.292Z,-2.00
2019-02-18T05:09:41.959Z,-2.00
2019-02-18T05:12:22.674Z,-2.00
2019-02-18T05:15:04.555Z,-2.00
2019-02-18T05:20:29.945Z,-1.90
2019-02-18T05:25:55.848Z,-1.90
2019-02-18T05:31:26.158Z,-2.00
2019-02-18T05:36:55.535Z,-2.00
2019-02-18T05:39:36.334Z,-2.00
2019-02-18T05:42:17.574Z,-2.10
2019-02-18T05:47:48.379Z,-2.10
2019-02-18T05:53:16.647Z,-2.30
2019-02-18T05:55:58.792Z,-2.30
2019-02-18T05:58:40.312Z,-2.30
2019-02-18T06:01:21.600Z,-2.30
2019-02-18T06:04:03.181Z,-2.30
2019-02-18T06:09:30.173Z,-2.30
2019-02-18T06:12:10.949Z,-2.30
2019-02-18T06:14:52.307Z,-2.30
2019-02-18T06:17:33.113Z,-2.30
2019-02-18T06:20:13.719Z,-2.30
2019-02-18T06:22:54.475Z,-2.30
2019-02-18T06:25:35.739Z,-2.30
2019-02-18T06:28:16.790Z,-2.30
2019-02-18T06:30:58.327Z,-2.30
2019-02-18T06:33:39.804Z,-2.30
2019-02-18T06:36:20.702Z,-2.30
2019-02-18T06:39:05.016Z,-2.30
2019-02-18T06:41:45.846Z,-2.20
2019-02-18T06:44:28.592Z,-2.10
2019-02-18T06:47:10.510Z,-2.10
2019-02-18T06:49:51.549Z,-2.00
2019-02-18T06:52:32.772Z,-1.90
2019-02-18T06:55:13.958Z,-1.70
2019-02-18T07:00:54.254Z,-1.40
2019-02-18T07:06:30.133Z,-0.90
2019-02-18T07:09:14.505Z,-0.70
2019-02-18T07:11:57.132Z,-0.40
2019-02-18T07:14:41.174Z,-0.20
2019-02-18T07:20:07.521Z,0.10
2019-02-18T07:22:48.986Z,0.30
2019-02-18T07:25:31.143Z,0.50
2019-02-18T07:28:12.134Z,0.70
2019-02-18T07:30:53.197Z,0.80
2019-02-18T07:33:34.218Z,1.00
2019-02-18T07:36:15.239Z,1.10
2019-02-18T07:38:56.823Z,1.20
2019-02-18T07:41:38.584Z,1.40
2019-02-18T07:47:04.394Z,1.80
2019-02-18T07:49:46.834Z,1.90
2019-02-18T07:52:35.997Z,2.00
2019-02-18T07:58:06.175Z,2.20
2019-02-18T08:03:31.914Z,2.40
2019-02-18T08:06:14.105Z,2.60
2019-02-18T08:08:55.698Z,2.80
2019-02-18T08:14:21.332Z,3.10
2019-02-18T08:19:51.829Z,3.40
2019-02-18T08:25:22.367Z,3.90
2019-02-18T08:30:48.970Z,4.40
2019-02-18T08:36:18.229Z,4.80
2019-02-18T08:39:00.489Z,5.00
2019-02-18T08:41:42.993Z,5.20
2019-02-18T08:44:24.639Z,5.40
2019-02-18T08:50:10.770Z,5.60
2019-02-18T08:52:52.508Z,5.80
2019-02-18T08:55:34.128Z,5.90
2019-02-18T08:58:16.214Z,6.00
2019-02-18T09:01:02.521Z,6.10
2019-02-18T09:03:40.563Z,6.30
2019-02-18T09:06:21.852Z,6.40
2019-02-18T09:09:03.072Z,6.60
2019-02-18T09:11:44.620Z,6.80
2019-02-18T09:14:26.027Z,7.00
2019-02-18T09:17:07.391Z,7.30
2019-02-18T09:22:38.888Z,7.70
2019-02-18T09:25:24.558Z,8.00
2019-02-18T09:28:05.475Z,8.30
2019-02-18T09:30:47.864Z,8.50
2019-02-18T09:33:28.635Z,8.80
2019-02-18T09:36:09.911Z,9.00
2019-02-18T09:38:50.577Z,9.20
2019-02-18T09:41:31.712Z,9.40
2019-02-18T09:44:19.223Z,9.60
2019-02-18T09:47:00.489Z,9.80
2019-02-18T09:52:35.063Z,10.10
2019-02-18T09:57:59.918Z,10.40
2019-02-18T10:03:31.802Z,10.70
2019-02-18T10:06:07.624Z,10.90
2019-02-18T10:08:48.829Z,11.00
2019-02-18T10:14:15.392Z,11.40
2019-02-18T10:16:57.557Z,11.50
2019-02-18T10:19:39.690Z,11.80
2019-02-18T10:25:05.779Z,12.40
2019-02-18T10:27:48.819Z,12.70
2019-02-18T10:30:30.060Z,12.90
2019-02-18T10:33:12.217Z,13.10
2019-02-18T10:35:53.880Z,13.20
2019-02-18T10:48:02.827Z,13.10
2019-02-18T10:53:33.703Z,13.30
2019-02-18T11:02:35.571Z,13.40
2019-02-18T11:08:20.496Z,13.60
2019-02-18T11:11:02.405Z,13.80
2019-02-18T11:13:43.470Z,13.90
2019-02-18T11:16:24.416Z,14.00
2019-02-18T11:19:06.217Z,14.10
2019-02-18T11:21:47.204Z,14.30
2019-02-18T11:24:29.648Z,14.50
2019-02-18T11:27:10.993Z,14.80
2019-02-18T11:29:51.862Z,15.10
2019-02-18T11:35:24.590Z,15.60
2019-02-18T11:38:05.772Z,15.80
2019-02-18T11:40:48.327Z,16.00
2019-02-18T11:46:33.754Z,16.50
2019-02-18T11:49:15.399Z,16.80
2019-02-18T11:52:00.269Z,17.20
2019-02-18T11:54:41.595Z,17.60
2019-02-18T12:00:07.210Z,18.60
2019-02-18T12:02:48.839Z,18.80
2019-02-18T12:05:30.305Z,19.00
2019-02-18T12:11:37.673Z,20.00
2019-02-18T12:19:54.402Z,21.40
2019-02-18T12:22:35.656Z,21.80
2019-02-18T12:31:15.088Z,22.70
2019-02-18T12:37:07.858Z,23.30
2019-02-18T12:39:49.948Z,23.50
2019-02-18T12:42:32.243Z,23.70
2019-02-18T12:45:14.659Z,23.90
2019-02-18T12:50:44.394Z,24.20
2019-02-18T12:56:16.551Z,23.90
2019-02-18T13:01:48.699Z,21.70
2019-02-18T13:07:14.840Z,19.70
2019-02-18T13:12:45.977Z,18.20
2019-02-18T13:18:12.541Z,16.80
2019-02-18T13:20:54.455Z,16.40
2019-02-18T13:26:51.724Z,15.60
2019-02-18T13:29:33.703Z,15.20
2019-02-18T13:32:16.343Z,15.00
2019-02-18T13:34:57.645Z,14.80
2019-02-18T13:37:38.742Z,14.60
2019-02-18T13:40:20.068Z,14.40
2019-02-18T13:43:02.001Z,14.30
2019-02-18T13:45:43.590Z,14.20
2019-02-18T13:48:26.871Z,14.10
2019-02-18T13:51:10.291Z,14.00
2019-02-18T13:53:51.514Z,14.00
2019-02-18T13:56:32.790Z,14.00
2019-02-18T13:59:14.081Z,14.10
2019-02-18T14:01:55.618Z,14.40
2019-02-18T14:04:36.728Z,14.60
2019-02-18T14:07:17.633Z,14.60
2019-02-18T14:10:02.700Z,14.50
2019-02-18T14:12:44.755Z,14.40
2019-02-18T14:15:26.979Z,14.30
2019-02-18T14:18:08.784Z,14.20
2019-02-18T14:24:09.996Z,13.90
2019-02-18T14:26:51.043Z,13.80
2019-02-18T14:29:33.346Z,13.60
2019-02-18T14:37:46.252Z,13.20
2019-02-18T14:43:14.438Z,12.90
2019-02-18T14:45:56.702Z,12.80
2019-02-18T14:51:22.940Z,12.40
2019-02-18T14:56:53.422Z,12.10
2019-02-18T15:02:23.966Z,11.80
2019-02-18T15:07:59.242Z,11.40
2019-02-18T15:13:30.825Z,11.10
2019-02-18T15:19:01.371Z,10.90
2019-02-18T15:24:32.632Z,10.60
2019-02-18T15:29:58.109Z,10.40
2019-02-18T15:35:27.959Z,10.20
2019-02-18T15:40:58.549Z,10.10
2019-02-18T15:46:29.348Z,10.20
2019-02-18T15:52:00.164Z,10.20
2019-02-18T15:57:54.374Z,9.90
2019-02-18T16:00:39.298Z,9.80
2019-02-18T16:03:20.418Z,9.70
2019-02-18T16:06:01.135Z,9.50
2019-02-18T16:08:43.225Z,9.40
2019-02-18T16:11:24.832Z,9.40
2019-02-18T16:14:06.647Z,9.30
2019-02-18T16:16:48.285Z,9.30
2019-02-18T16:19:29.501Z,9.30
2019-02-18T16:22:10.764Z,9.30
2019-02-18T16:24:52.578Z,9.20
2019-02-18T16:30:25.212Z,9.20
2019-02-18T16:33:06.396Z,9.20
2019-02-18T16:35:47.968Z,9.10
2019-02-18T16:41:14.697Z,9.10
2019-02-18T16:55:03.556Z,9.20
2019-02-18T16:57:45.134Z,9.20
2019-02-18T17:00:28.537Z,9.20
2019-02-18T17:03:10.311Z,9.10
2019-02-18T17:05:52.566Z,8.90
2019-02-18T17:08:34.374Z,8.60
2019-02-18T17:11:16.740Z,8.40
2019-02-18T17:13:58.793Z,8.10
2019-02-18T17:16:40.891Z,7.70
2019-02-18T17:19:23.000Z,7.40
2019-02-18T17:24:49.820Z,6.50
2019-02-18T17:30:21.144Z,5.90
2019-02-18T17:35:42.236Z,5.50
2019-02-18T17:41:13.049Z,5.20
2019-02-18T17:46:38.665Z,4.90
2019-02-18T17:49:20.672Z,4.70
2019-02-18T17:52:02.606Z,4.70
2019-02-18T17:57:33.688Z,4.50
2019-02-18T18:03:04.686Z,4.40
2019-02-18T18:08:39.370Z,4.30
2019-02-18T18:11:21.319Z,4.20
2019-02-18T18:14:02.879Z,4.20
2019-02-18T18:16:44.233Z,4.10
2019-02-18T18:19:25.629Z,4.10
2019-02-18T18:22:07.517Z,4.00
2019-02-18T18:24:49.803Z,4.00
2019-02-18T18:27:31.994Z,3.90
2019-02-18T18:30:13.786Z,3.90
2019-02-18T18:32:54.583Z,3.80
2019-02-18T18:35:35.695Z,3.80
2019-02-18T18:38:17.693Z,3.70
2019-02-18T18:40:58.284Z,3.70
2019-02-18T18:43:41.745Z,3.70
2019-02-18T18:46:23.057Z,3.60
2019-02-18T18:49:04.009Z,3.50
2019-02-18T18:51:45.857Z,3.40
2019-02-18T18:54:27.415Z,3.30
2019-02-18T18:57:08.996Z,3.30
2019-02-18T18:59:53.014Z,3.20
2019-02-18T19:02:37.029Z,3.10
2019-02-18T19:05:24.884Z,3.00
2019-02-18T19:11:06.882Z,2.80
2019-02-18T19:13:54.989Z,2.80
2019-02-18T19:16:36.597Z,2.70
2019-02-18T19:19:18.439Z,2.60
2019-02-18T19:22:00.256Z,2.60
2019-02-18T19:24:41.696Z,2.60
2019-02-18T19:27:25.003Z,2.50
2019-02-18T19:30:06.807Z,2.50
2019-02-18T19:32:49.474Z,2.40
2019-02-18T19:35:31.395Z,2.40
2019-02-18T19:40:58.616Z,2.20
2019-02-18T19:46:31.261Z,2.10
2019-02-18T19:49:13.532Z,2.00
2019-02-18T19:51:56.881Z,2.00
2019-02-18T19:57:30.406Z,2.10
2019-02-18T20:03:00.923Z,2.10
2019-02-18T20:08:26.238Z,2.10
2019-02-18T20:13:59.068Z,2.10
2019-02-18T20:16:43.847Z,2.20
2019-02-18T20:19:26.319Z,2.20
2019-02-18T20:24:57.638Z,2.30
2019-02-18T20:30:28.249Z,2.30
2019-02-18T20:33:09.452Z,2.30
2019-02-18T20:35:50.857Z,2.30
2019-02-18T20:41:16.123Z,2.40
2019-02-18T20:43:57.362Z,2.40
2019-02-18T20:46:38.292Z,2.40
2019-02-18T20:51:59.098Z,2.20
2019-02-18T20:54:52.595Z,2.10
2019-02-18T20:57:40.869Z,2.00
2019-02-18T21:03:09.494Z,1.80
2019-02-18T21:05:52.354Z,1.70
2019-02-18T21:08:35.719Z,1.60
2019-02-18T21:14:01.140Z,1.30
2019-02-18T21:16:42.027Z,1.20
2019-02-18T21:19:27.069Z,1.20
2019-02-18T21:24:53.403Z,1.20
2019-02-18T21:27:40.481Z,1.20
2019-02-18T21:33:17.324Z,1.40
2019-02-18T21:36:01.666Z,1.50
2019-02-18T21:41:31.812Z,1.70
2019-02-18T21:44:25.478Z,1.60
2019-02-18T21:47:09.731Z,1.60
2019-02-18T21:49:58.359Z,1.60
2019-02-18T21:52:46.919Z,1.50
2019-02-18T21:55:35.317Z,1.50
2019-02-18T21:58:23.917Z,1.40
2019-02-18T22:01:12.685Z,1.30
2019-02-18T22:04:00.745Z,1.30
2019-02-18T22:09:57.900Z,1.20
2019-02-18T22:12:46.551Z,1.20
2019-02-18T22:15:34.799Z,1.30
2019-02-18T22:18:22.962Z,1.30
2019-02-18T22:21:11.171Z,1.20
2019-02-18T22:24:01.101Z,1.10
2019-02-18T22:26:42.186Z,1.10
2019-02-18T22:32:08.486Z,1.00
2019-02-18T22:37:34.693Z,0.90
2019-02-18T22:43:00.706Z,0.90
2019-02-18T22:45:42.225Z,1.00
2019-02-18T22:48:23.888Z,1.10
2019-02-18T22:51:05.510Z,1.20
2019-02-18T22:53:47.484Z,1.30
2019-02-18T22:56:28.562Z,1.30
2019-02-18T22:59:10.221Z,1.30
2019-02-18T23:01:51.630Z,1.30
2019-02-18T23:04:33.075Z,1.30
2019-02-18T23:07:14.037Z,1.20
2019-02-18T23:09:55.232Z,1.20
2019-02-18T23:12:36.943Z,1.20
2019-02-18T23:15:17.640Z,1.20
2019-02-18T23:18:02.001Z,1.10
2019-02-18T23:20:43.497Z,1.00
2019-02-18T23:23:24.873Z,1.00
2019-02-18T23:26:06.471Z,0.90
2019-02-18T23:28:47.609Z,0.80
2019-02-18T23:31:29.147Z,0.80
2019-02-18T23:37:29.053Z,0.70
2019-02-18T23:40:10.549Z,0.60
2019-02-18T23:42:52.489Z,0.60
2019-02-18T23:45:33.847Z,0.60
2019-02-18T23:48:15.429Z,0.50
2019-02-18T23:50:57.137Z,0.40
2019-02-18T23:53:38.868Z,0.30
2019-02-18T23:56:20.684Z,0.20
2019-02-18T23:59:02.721Z,0.20
